createdAt,value
2022-12-13T00:01:57.692Z,21.00
2022-12-13T00:04:26.543Z,14.80
2022-12-13T00:06:54.501Z,13.70
2022-12-13T00:09:23.428Z,14.60
2022-12-13T00:11:52.168Z,16.70
2022-12-13T00:14:19.909Z,13.40
2022-12-13T00:16:50.085Z,11.70
2022-12-13T00:19:19.516Z,10.20
2022-12-13T00:21:47.766Z,16.00
2022-12-13T00:24:16.156Z,17.90
2022-12-13T00:26:44.804Z,15.50
2022-12-13T00:29:12.872Z,16.80
2022-12-13T00:34:29.496Z,13.80
2022-12-13T00:37:00.754Z,11.00
2022-12-13T00:39:29.280Z,10.40
2022-12-13T00:41:57.775Z,11.30
2022-12-13T00:44:26.090Z,11.00
2022-12-13T00:46:53.865Z,9.70
2022-12-13T00:49:21.661Z,8.10
2022-12-13T00:51:49.495Z,18.10
2022-12-13T00:54:17.946Z,13.70
2022-12-13T00:56:45.705Z,16.80
2022-12-13T00:59:15.476Z,15.80
2022-12-13T01:01:43.315Z,15.80
2022-12-13T01:04:11.250Z,13.90
2022-12-13T01:06:46.502Z,10.60
2022-12-13T01:09:24.111Z,10.50
2022-12-13T01:11:56.125Z,10.40
2022-12-13T01:14:23.789Z,6.10
2022-12-13T01:16:51.565Z,12.90
2022-12-13T01:19:19.309Z,14.80
2022-12-13T01:21:47.039Z,13.60
2022-12-13T01:24:15.658Z,14.90
2022-12-13T01:26:43.325Z,13.90
2022-12-13T01:29:11.467Z,11.90
2022-12-13T01:31:41.793Z,11.20
2022-12-13T01:34:12.037Z,9.60
2022-12-13T01:36:43.280Z,9.50
2022-12-13T01:39:14.692Z,8.60
2022-12-13T01:41:50.272Z,9.00
2022-12-13T01:44:56.035Z,9.10
2022-12-13T01:47:48.074Z,9.20
2022-12-13T01:50:36.303Z,17.40
2022-12-13T01:53:07.728Z,15.20
2022-12-13T01:55:41.503Z,14.40
2022-12-13T01:58:12.164Z,11.30
2022-12-13T02:00:41.536Z,12.20
2022-12-13T02:03:21.247Z,11.90
2022-12-13T02:06:17.487Z,12.30
2022-12-13T02:08:46.764Z,5.70
2022-12-13T02:11:15.675Z,11.40
2022-12-13T02:13:43.453Z,14.40
2022-12-13T02:16:29.046Z,11.20
2022-12-13T02:19:20.031Z,10.40
2022-12-13T02:21:50.727Z,19.20
2022-12-13T02:24:42.464Z,18.80
2022-12-13T02:28:00.661Z,15.60
2022-12-13T02:30:42.905Z,14.90
2022-12-13T02:33:33.096Z,17.80
2022-12-13T02:36:21.098Z,16.90
2022-12-13T02:39:10.591Z,8.60
2022-12-13T02:41:54.598Z,9.20
2022-12-13T02:44:47.136Z,9.90
2022-12-13T02:47:23.849Z,11.90
2022-12-13T02:50:00.112Z,10.90
2022-12-13T02:52:31.220Z,10.00
2022-12-13T02:54:59.593Z,16.00
2022-12-13T02:57:41.040Z,18.20
2022-12-13T03:00:21.062Z,13.00
2022-12-13T03:03:33.191Z,12.90
2022-12-13T03:06:42.784Z,14.60
2022-12-13T03:09:51.431Z,10.50
2022-12-13T03:13:02.519Z,12.20
2022-12-13T03:15:42.272Z,14.10
2022-12-13T03:18:17.742Z,10.20
2022-12-13T03:20:56.290Z,14.70
2022-12-13T03:23:25.116Z,14.00
2022-12-13T03:25:57.050Z,12.60
2022-12-13T03:28:24.780Z,20.30
2022-12-13T03:30:52.580Z,25.30
2022-12-13T03:33:20.342Z,14.10
2022-12-13T03:35:48.328Z,17.20
2022-12-13T03:38:22.503Z,14.10
2022-12-13T03:41:14.017Z,12.40
2022-12-13T03:43:42.441Z,12.50
2022-12-13T03:46:11.229Z,12.80
2022-12-13T03:48:39.136Z,12.10
2022-12-13T03:51:07.171Z,8.90
2022-12-13T03:53:34.829Z,8.40
2022-12-13T03:56:06.087Z,12.80
2022-12-13T03:58:37.736Z,16.80
2022-12-13T04:01:09.442Z,19.70
2022-12-13T04:03:39.617Z,17.20
2022-12-13T04:06:08.532Z,13.00
2022-12-13T04:08:38.521Z,13.70
2022-12-13T04:11:26.568Z,11.80
2022-12-13T04:13:55.172Z,12.70
2022-12-13T04:16:24.324Z,12.70
2022-12-13T04:18:52.274Z,10.80
2022-12-13T04:21:20.025Z,12.50
2022-12-13T04:23:47.782Z,13.00
2022-12-13T04:26:15.987Z,12.20
2022-12-13T04:28:44.670Z,10.00
2022-12-13T04:31:14.889Z,15.60
2022-12-13T04:33:42.586Z,18.00
2022-12-13T04:36:10.323Z,18.60
2022-12-13T04:38:37.960Z,13.50
2022-12-13T04:41:16.598Z,15.50
2022-12-13T04:43:50.080Z,14.10
2022-12-13T04:46:19.517Z,15.60
2022-12-13T04:48:47.703Z,15.10
2022-12-13T04:51:16.775Z,11.70
2022-12-13T04:53:44.706Z,11.00
2022-12-13T04:56:12.427Z,20.00
2022-12-13T04:58:40.116Z,23.00
2022-12-13T05:01:11.223Z,31.80
2022-12-13T05:03:39.900Z,36.40
2022-12-13T05:06:26.656Z,28.10
2022-12-13T05:09:00.757Z,26.70
2022-12-13T05:11:35.595Z,25.80
2022-12-13T05:14:03.901Z,25.40
2022-12-13T05:16:31.702Z,25.70
2022-12-13T05:18:59.406Z,18.40
2022-12-13T05:21:27.005Z,13.20
2022-12-13T05:23:54.660Z,15.30
2022-12-13T05:26:22.408Z,15.00
2022-12-13T05:28:50.128Z,12.90
2022-12-13T05:31:23.015Z,12.80
2022-12-13T05:33:55.074Z,16.80
2022-12-13T05:36:29.146Z,21.40
2022-12-13T05:38:56.929Z,19.40
2022-12-13T05:41:27.580Z,17.80
2022-12-13T05:43:55.236Z,13.90
2022-12-13T05:46:23.261Z,13.50
2022-12-13T05:48:51.086Z,14.40
2022-12-13T05:51:18.776Z,15.50
2022-12-13T05:53:51.591Z,9.90
2022-12-13T05:56:22.591Z,11.70
2022-12-13T05:58:53.344Z,12.90
2022-12-13T06:01:21.685Z,7.40
2022-12-13T06:03:49.498Z,18.10
2022-12-13T06:06:21.244Z,20.50
2022-12-13T06:08:48.919Z,14.70
2022-12-13T06:11:31.878Z,20.00
2022-12-13T06:14:00.889Z,14.90
2022-12-13T06:16:29.145Z,15.10
2022-12-13T06:19:03.854Z,16.20
2022-12-13T06:21:41.484Z,13.90
2022-12-13T06:24:20.830Z,17.30
2022-12-13T06:26:50.441Z,18.70
2022-12-13T06:29:24.226Z,17.80
2022-12-13T06:32:03.317Z,16.00
2022-12-13T06:34:35.935Z,16.60
2022-12-13T06:37:08.480Z,15.90
2022-12-13T06:39:36.324Z,22.30
2022-12-13T06:42:06.875Z,24.60
2022-12-13T06:44:35.467Z,20.20
2022-12-13T06:47:11.403Z,20.30
2022-12-13T06:49:43.976Z,23.20
2022-12-13T06:52:14.111Z,18.00
2022-12-13T06:54:43.062Z,20.00
2022-12-13T06:57:12.478Z,19.60
2022-12-13T06:59:41.209Z,16.50
2022-12-13T07:02:24.892Z,16.10
2022-12-13T07:04:55.203Z,15.10
2022-12-13T07:07:25.624Z,13.60
2022-12-13T07:09:53.935Z,19.10
2022-12-13T07:12:22.962Z,20.70
2022-12-13T07:14:50.704Z,15.10
2022-12-13T07:17:33.684Z,14.80
2022-12-13T07:20:08.412Z,16.40
2022-12-13T07:22:44.967Z,19.10
2022-12-13T07:25:27.782Z,16.30
2022-12-13T07:28:04.039Z,16.10
2022-12-13T07:30:41.435Z,11.60
2022-12-13T07:33:10.172Z,7.70
2022-12-13T07:35:38.559Z,9.30
2022-12-13T07:38:08.686Z,15.90
2022-12-13T07:40:39.250Z,14.80
2022-12-13T07:43:07.341Z,15.50
2022-12-13T07:45:36.344Z,19.60
2022-12-13T07:48:06.198Z,23.20
2022-12-13T07:50:37.290Z,26.90
2022-12-13T07:53:08.193Z,19.50
2022-12-13T07:55:37.459Z,14.00
2022-12-13T07:58:11.944Z,18.20
2022-12-13T08:00:46.088Z,22.90
2022-12-13T08:03:24.422Z,22.30
2022-12-13T08:06:09.551Z,21.80
2022-12-13T08:08:38.942Z,15.80
2022-12-13T08:11:11.451Z,12.80
2022-12-13T08:13:41.065Z,17.80
2022-12-13T08:16:26.670Z,12.60
2022-12-13T08:19:01.716Z,17.00
2022-12-13T08:21:58.286Z,22.70
2022-12-13T08:24:30.905Z,16.70
2022-12-13T08:27:02.433Z,18.70
2022-12-13T08:29:35.828Z,17.50
2022-12-13T08:32:11.853Z,17.20
2022-12-13T08:34:41.852Z,17.40
2022-12-13T08:37:09.728Z,21.50
2022-12-13T08:39:39.203Z,19.20
2022-12-13T08:42:18.289Z,16.30
2022-12-13T08:44:50.806Z,17.50
2022-12-13T08:47:24.748Z,18.60
2022-12-13T08:50:01.865Z,14.80
2022-12-13T08:52:39.382Z,12.10
2022-12-13T08:55:11.158Z,18.10
2022-12-13T08:57:40.765Z,17.60
2022-12-13T09:00:17.388Z,20.80
2022-12-13T09:02:45.318Z,23.70
2022-12-13T09:05:13.584Z,40.50
2022-12-13T09:08:02.936Z,28.60
2022-12-13T09:10:38.148Z,36.50
2022-12-13T09:13:11.824Z,23.90
2022-12-13T09:15:45.987Z,31.10
2022-12-13T09:18:15.174Z,33.80
2022-12-13T09:20:52.046Z,27.20
2022-12-13T09:23:23.309Z,18.20
2022-12-13T09:26:05.296Z,26.60
2022-12-13T09:28:39.298Z,16.00
2022-12-13T09:31:13.695Z,12.90
2022-12-13T09:33:42.367Z,11.30
2022-12-13T09:36:17.937Z,15.20
2022-12-13T09:38:46.909Z,17.30
2022-12-13T09:41:20.492Z,22.90
2022-12-13T09:44:06.101Z,20.50
2022-12-13T09:46:45.116Z,23.10
2022-12-13T09:49:28.673Z,23.50
2022-12-13T09:52:11.769Z,20.40
2022-12-13T09:54:56.728Z,22.90
2022-12-13T09:57:33.817Z,16.60
2022-12-13T10:00:13.375Z,14.20
2022-12-13T10:02:55.803Z,19.60
2022-12-13T10:05:39.366Z,13.90
2022-12-13T10:08:25.005Z,16.70
2022-12-13T10:10:55.884Z,17.00
2022-12-13T10:13:45.810Z,24.10
2022-12-13T10:16:27.018Z,12.00
2022-12-13T10:19:34.359Z,38.00
2022-12-13T10:22:06.064Z,30.00
2022-12-13T10:24:56.717Z,27.10
2022-12-13T10:27:34.808Z,38.90
2022-12-13T10:30:27.997Z,28.30
2022-12-13T10:33:01.166Z,31.90
2022-12-13T10:35:38.536Z,35.80
2022-12-13T10:38:10.313Z,38.70
2022-12-13T10:40:43.828Z,39.60
2022-12-13T10:43:24.567Z,33.10
2022-12-13T10:46:04.067Z,36.10
2022-12-13T10:48:50.717Z,27.60
2022-12-13T10:51:21.760Z,27.50
2022-12-13T10:54:00.682Z,32.50
2022-12-13T10:56:48.048Z,27.20
2022-12-13T10:59:20.784Z,48.40
2022-12-13T11:01:48.852Z,29.20
2022-12-13T11:04:34.834Z,21.70
2022-12-13T11:07:31.788Z,31.60
2022-12-13T11:10:29.845Z,31.60
2022-12-13T11:13:05.145Z,28.30
2022-12-13T11:15:38.104Z,29.60
2022-12-13T11:18:20.750Z,30.50
2022-12-13T11:20:57.479Z,24.80
2022-12-13T11:23:45.053Z,16.80
2022-12-13T11:26:24.413Z,28.90
2022-12-13T11:29:43.751Z,23.80
2022-12-13T11:32:23.451Z,17.70
2022-12-13T11:35:20.456Z,16.80
2022-12-13T11:38:16.430Z,16.50
2022-12-13T11:40:59.964Z,13.50
2022-12-13T11:43:50.815Z,13.90
2022-12-13T11:46:38.622Z,11.80
2022-12-13T11:49:20.257Z,22.60
2022-12-13T11:51:56.044Z,23.20
2022-12-13T11:54:56.860Z,17.60
2022-12-13T11:57:44.917Z,22.10
2022-12-13T12:00:35.108Z,19.60
2022-12-13T12:03:21.809Z,21.50
2022-12-13T12:05:59.612Z,24.10
2022-12-13T12:08:51.863Z,23.70
2022-12-13T12:11:48.747Z,19.20
2022-12-13T12:14:28.222Z,20.60
2022-12-13T12:17:00.187Z,27.80
2022-12-13T12:19:39.654Z,14.90
2022-12-13T12:22:34.349Z,20.30
2022-12-13T12:25:56.144Z,17.00
2022-12-13T12:29:01.379Z,25.10
2022-12-13T12:32:12.357Z,24.60
2022-12-13T12:35:01.435Z,18.80
2022-12-13T12:37:40.701Z,27.30
2022-12-13T12:44:17.570Z,24.00
2022-12-13T12:47:31.962Z,21.50
2022-12-13T12:50:03.881Z,15.70
2022-12-13T12:52:53.531Z,20.70
2022-12-13T12:55:59.524Z,22.10
2022-12-13T12:58:56.915Z,22.10
2022-12-13T13:01:59.937Z,24.40
2022-12-13T13:04:39.341Z,16.60
2022-12-13T13:07:23.451Z,14.30
2022-12-13T13:09:54.591Z,23.80
2022-12-13T13:12:30.289Z,27.90
2022-12-13T13:14:58.848Z,23.60
2022-12-13T13:17:26.376Z,21.50
2022-12-13T13:20:20.967Z,18.80
2022-12-13T13:23:10.487Z,19.60
2022-12-13T13:26:00.245Z,22.20
2022-12-13T13:28:27.276Z,26.70
2022-12-13T13:31:09.353Z,26.00
2022-12-13T13:33:57.503Z,23.80
2022-12-13T13:36:44.737Z,21.70
2022-12-13T13:39:19.338Z,24.20
2022-12-13T13:42:01.579Z,22.60
2022-12-13T13:45:00.581Z,20.20
2022-12-13T13:47:39.176Z,17.30
2022-12-13T13:50:12.625Z,20.60
2022-12-13T13:53:24.147Z,29.00
2022-12-13T13:56:34.537Z,36.70
2022-12-13T13:59:23.194Z,40.40
2022-12-13T14:02:10.286Z,31.80
2022-12-13T14:05:09.324Z,28.20
2022-12-13T14:08:03.946Z,25.10
2022-12-13T14:11:12.052Z,28.50
2022-12-13T14:14:00.419Z,30.40
2022-12-13T14:16:46.192Z,34.00
2022-12-13T14:20:06.688Z,55.30
2022-12-13T14:22:45.077Z,43.20
2022-12-13T14:25:40.321Z,39.60
2022-12-13T14:28:55.228Z,39.20
2022-12-13T14:31:40.643Z,41.80
2022-12-13T14:34:23.003Z,37.40
2022-12-13T14:37:04.707Z,31.20
2022-12-13T14:39:36.248Z,31.90
2022-12-13T14:42:29.363Z,31.20
2022-12-13T14:45:22.832Z,39.00
2022-12-13T14:47:54.704Z,37.20
2022-12-13T14:50:26.879Z,60.10
2022-12-13T14:52:56.274Z,43.10
2022-12-13T14:55:36.245Z,42.80
2022-12-13T14:58:18.699Z,40.90
2022-12-13T15:00:46.589Z,43.30
2022-12-13T15:03:25.074Z,33.00
2022-12-13T15:05:57.384Z,38.90
2022-12-13T15:08:26.575Z,39.10
2022-12-13T15:10:59.626Z,38.70
2022-12-13T15:13:42.387Z,39.80
2022-12-13T15:16:26.378Z,36.70
2022-12-13T15:19:31.133Z,39.20
2022-12-13T15:22:05.369Z,35.10
2022-12-13T15:24:40.956Z,45.40
2022-12-13T15:27:09.252Z,39.70
2022-12-13T15:29:37.624Z,34.20
2022-12-13T15:32:14.053Z,44.50
2022-12-13T15:34:46.277Z,43.80
2022-12-13T15:37:28.086Z,43.60
2022-12-13T15:40:07.501Z,37.50
2022-12-13T15:42:39.069Z,42.50
2022-12-13T15:45:22.858Z,39.80
2022-12-13T15:47:52.947Z,39.80
2022-12-13T15:50:41.023Z,51.00
2022-12-13T15:53:32.000Z,49.70
2022-12-13T15:56:02.298Z,62.10
2022-12-13T15:58:36.558Z,76.80
2022-12-13T16:01:07.328Z,70.30
2022-12-13T16:03:44.904Z,63.90
2022-12-13T16:06:22.701Z,62.40
2022-12-13T16:08:54.336Z,53.30
2022-12-13T16:11:42.672Z,55.80
2022-12-13T16:14:32.432Z,59.20
2022-12-13T16:17:10.739Z,72.40
2022-12-13T16:19:38.468Z,110.90
2022-12-13T16:22:08.543Z,110.20
2022-12-13T16:24:36.931Z,137.10
2022-12-13T16:27:08.444Z,120.80
2022-12-13T16:29:36.810Z,106.40
2022-12-13T16:32:08.516Z,123.70
2022-12-13T16:34:38.058Z,120.10
2022-12-13T16:37:08.695Z,109.20
2022-12-13T16:39:54.289Z,130.80
2022-12-13T16:42:25.960Z,118.90
2022-12-13T16:45:40.551Z,143.30
2022-12-13T16:47:49.631Z,138.00
2022-12-13T16:50:21.181Z,153.00
2022-12-13T16:52:49.288Z,134.80
2022-12-13T16:55:17.209Z,115.20
2022-12-13T16:57:56.415Z,128.70
2022-12-13T17:00:24.443Z,129.60
2022-12-13T17:02:53.826Z,135.60
2022-12-13T17:05:23.188Z,111.00
2022-12-13T17:07:51.094Z,101.10
2022-12-13T17:10:19.557Z,101.70
2022-12-13T17:12:47.436Z,102.00
2022-12-13T17:15:15.943Z,98.10
2022-12-13T17:17:46.823Z,94.40
2022-12-13T17:20:19.008Z,127.40
2022-12-13T17:22:47.244Z,105.00
2022-12-13T17:25:15.252Z,81.50
2022-12-13T17:27:43.072Z,76.10
2022-12-13T17:30:15.996Z,93.10
2022-12-13T17:32:44.887Z,92.90
2022-12-13T17:35:17.848Z,90.20
2022-12-13T17:37:46.391Z,88.90
2022-12-13T17:40:14.149Z,89.50
2022-12-13T17:42:41.900Z,91.10
2022-12-13T17:45:10.387Z,89.30
2022-12-13T17:47:39.257Z,82.40
2022-12-13T17:50:09.043Z,79.30
2022-12-13T17:52:41.419Z,92.90
2022-12-13T17:55:13.542Z,92.50
2022-12-13T17:57:45.624Z,89.40
2022-12-13T18:00:15.171Z,100.60
2022-12-13T18:02:42.791Z,83.20
2022-12-13T18:05:26.230Z,89.00
2022-12-13T18:07:54.068Z,85.30
2022-12-13T18:10:27.800Z,83.40
2022-12-13T18:12:58.625Z,82.20
2022-12-13T18:15:26.560Z,84.60
2022-12-13T18:18:13.706Z,73.90
2022-12-13T18:20:41.745Z,85.40
2022-12-13T18:23:10.227Z,80.10
2022-12-13T18:25:39.409Z,88.90
2022-12-13T18:28:11.807Z,89.20
2022-12-13T18:30:39.606Z,83.90
2022-12-13T18:33:07.359Z,94.90
2022-12-13T18:35:35.147Z,86.30
2022-12-13T18:38:02.837Z,95.20
2022-12-13T18:40:31.614Z,96.30
2022-12-13T18:42:59.224Z,93.20
2022-12-13T18:45:26.953Z,89.60
2022-12-13T18:47:54.687Z,92.50
2022-12-13T18:50:23.133Z,77.70
2022-12-13T18:52:51.290Z,78.60
2022-12-13T18:55:19.076Z,80.10
2022-12-13T18:57:50.465Z,89.00
2022-12-13T19:00:19.123Z,74.70
2022-12-13T19:02:46.879Z,71.70
2022-12-13T19:05:14.978Z,67.40
2022-12-13T19:07:43.425Z,78.10
2022-12-13T19:10:11.163Z,78.60
2022-12-13T19:12:38.966Z,78.10
2022-12-13T19:15:07.615Z,77.80
2022-12-13T19:17:35.323Z,81.90
2022-12-13T19:20:03.423Z,74.50
2022-12-13T19:22:31.216Z,70.50
2022-12-13T19:24:58.908Z,84.00
2022-12-13T19:27:26.628Z,100.50
2022-12-13T19:29:54.871Z,133.90
2022-12-13T19:32:22.839Z,117.70
2022-12-13T19:34:51.067Z,106.00
2022-12-13T19:37:19.170Z,100.50
2022-12-13T19:39:46.968Z,112.80
2022-12-13T19:42:14.719Z,83.20
2022-12-13T19:44:42.439Z,76.10
2022-12-13T19:47:11.089Z,69.40
2022-12-13T19:49:39.600Z,75.80
2022-12-13T19:52:07.283Z,80.00
2022-12-13T19:54:34.854Z,82.80
2022-12-13T19:57:07.043Z,74.40
2022-12-13T19:59:35.540Z,82.20
2022-12-13T20:02:03.527Z,84.70
2022-12-13T20:04:31.427Z,79.20
2022-12-13T20:06:59.164Z,86.20
2022-12-13T20:09:27.249Z,88.70
2022-12-13T20:11:54.924Z,90.90
2022-12-13T20:14:22.681Z,82.00
2022-12-13T20:16:50.443Z,71.50
2022-12-13T20:19:18.156Z,81.40
2022-12-13T20:21:46.371Z,74.70
2022-12-13T20:24:14.004Z,83.50
2022-12-13T20:26:42.255Z,79.90
2022-12-13T20:29:11.146Z,76.40
2022-12-13T20:31:40.504Z,68.60
2022-12-13T20:34:14.190Z,70.80
2022-12-13T20:36:42.855Z,85.80
2022-12-13T20:39:14.371Z,82.50
2022-12-13T20:41:42.340Z,82.90
2022-12-13T20:44:13.533Z,88.40
2022-12-13T20:46:41.329Z,92.30
2022-12-13T20:49:10.183Z,92.30
2022-12-13T20:51:41.736Z,98.30
2022-12-13T20:54:10.596Z,88.60
2022-12-13T20:56:39.248Z,122.40
2022-12-13T20:59:11.316Z,112.90
2022-12-13T21:01:41.050Z,105.60
2022-12-13T21:04:10.998Z,89.30
2022-12-13T21:06:41.567Z,88.90
2022-12-13T21:09:11.748Z,98.70
2022-12-13T21:11:44.009Z,91.60
2022-12-13T21:14:22.713Z,84.20
2022-12-13T21:16:56.457Z,92.70
2022-12-13T21:19:37.412Z,87.20
2022-12-13T21:22:07.916Z,89.40
2022-12-13T21:24:35.641Z,84.50
2022-12-13T21:27:03.501Z,88.40
2022-12-13T21:29:31.193Z,88.40
2022-12-13T21:31:58.869Z,81.40
2022-12-13T21:34:26.634Z,91.50
2022-12-13T21:36:54.344Z,87.90
2022-12-13T21:39:28.469Z,82.30
2022-12-13T21:41:57.716Z,88.60
2022-12-13T21:44:25.309Z,83.50
2022-12-13T21:49:41.259Z,85.50
2022-12-13T21:52:09.502Z,93.70
2022-12-13T21:54:37.159Z,88.40
2022-12-13T21:57:23.789Z,87.80
2022-12-13T21:59:51.472Z,87.60
2022-12-13T22:02:19.654Z,84.50
2022-12-13T22:04:54.866Z,86.40
2022-12-13T22:07:32.471Z,82.30
2022-12-13T22:10:01.992Z,81.90
2022-12-13T22:12:36.616Z,78.00
2022-12-13T22:15:13.074Z,81.70
2022-12-13T22:17:42.464Z,90.80
2022-12-13T22:20:15.301Z,93.00
2022-12-13T22:22:48.603Z,116.50
2022-12-13T22:25:16.527Z,118.40
2022-12-13T22:27:44.212Z,94.60
2022-12-13T22:30:12.174Z,90.40
2022-12-13T22:32:39.779Z,97.00
2022-12-13T22:35:08.259Z,82.10
2022-12-13T22:37:35.989Z,82.90
2022-12-13T22:40:04.156Z,81.50
2022-12-13T22:42:32.485Z,92.10
2022-12-13T22:45:00.362Z,84.60
2022-12-13T22:47:29.844Z,84.40
2022-12-13T22:49:57.509Z,84.30
2022-12-13T22:52:30.392Z,79.50
2022-12-13T22:55:01.098Z,92.60
2022-12-13T22:57:28.703Z,76.10
2022-12-13T22:59:56.344Z,83.40
2022-12-13T23:02:24.110Z,82.40
2022-12-13T23:04:51.892Z,75.30
2022-12-13T23:07:19.822Z,76.90
2022-12-13T23:09:47.509Z,77.90
2022-12-13T23:12:34.165Z,73.40
2022-12-13T23:15:01.792Z,78.60
2022-12-13T23:17:29.944Z,76.30
2022-12-13T23:19:58.103Z,77.70
2022-12-13T23:22:26.349Z,83.50
2022-12-13T23:24:54.146Z,73.90
2022-12-13T23:27:23.910Z,76.20
2022-12-13T23:29:52.053Z,70.70
2022-12-13T23:32:19.808Z,76.10
2022-12-13T23:34:47.538Z,79.90
2022-12-13T23:37:15.204Z,65.60
2022-12-13T23:39:42.980Z,69.40
2022-12-13T23:42:10.644Z,66.40
2022-12-13T23:44:38.705Z,63.90
2022-12-13T23:47:06.808Z,65.00
2022-12-13T23:49:34.359Z,63.80
2022-12-13T23:52:02.016Z,58.80
2022-12-13T23:54:29.657Z,76.80
2022-12-13T23:56:57.372Z,60.70
2022-12-13T23:59:26.130Z,65.70
